Time;durP1;ratioP1;P1;durP2;ratioP2;P2;SDS_P1;SDS_P2;PMS_P1;PMS_P2;Temp;Humidity;BMP_temperature;BMP_pressure;BME280_temperature;BME280_humidity;BME280_pressure;Samples;Min_cycle;Max_cycle;Signal;HPM_P1;HPM_P2
2022/01/02 00:00:19;;;;;;;0.73;0.73;;;3.10;99.90;;;;;;5057426;28;20033;-94
2022/01/02 00:03:13;;;;;;;0.50;0.50;;;3.10;99.90;;;;;;5052284;28;20064;-94
2022/01/02 00:05:40;;;;;;;1.10;0.68;;;3.10;99.90;;;;;;5048373;28;20043;-93
2022/01/02 00:08:09;;;;;;;0.45;0.45;;;3.00;99.90;;;;;;5052793;28;20086;-94
2022/01/02 00:10:49;;;;;;;0.80;0.70;;;3.00;99.90;;;;;;5051003;28;20044;-94
2022/01/02 00:13:23;;;;;;;0.60;0.60;;;3.00;99.90;;;;;;5050646;28;20068;-94
2022/01/02 00:15:51;;;;;;;0.77;0.77;;;2.90;99.90;;;;;;5056716;28;20044;-93
2022/01/02 00:18:18;;;;;;;1.23;0.98;;;2.90;99.90;;;;;;5054905;28;20492;-94
2022/01/02 00:20:48;;;;;;;1.38;0.93;;;2.90;99.90;;;;;;5052830;28;20033;-94
2022/01/02 00:23:21;;;;;;;0.85;0.70;;;2.80;99.90;;;;;;5058354;28;20037;-94
2022/01/02 00:26:05;;;;;;;0.57;0.57;;;2.80;99.90;;;;;;5070712;28;20036;-94
2022/01/02 00:28:32;;;;;;;0.73;0.73;;;2.80;99.90;;;;;;5055589;28;20033;-93
2022/01/02 00:30:59;;;;;;;0.65;0.65;;;2.70;99.90;;;;;;5057822;28;20021;-93
2022/01/02 00:33:26;;;;;;;8.13;1.00;;;2.60;99.90;;;;;;5054684;28;20053;-94
2022/01/02 00:35:51;;;;;;;0.73;0.73;;;2.60;99.90;;;;;;5055877;28;20053;-94
2022/01/02 00:38:22;;;;;;;1.33;0.98;;;2.60;99.90;;;;;;5055103;28;20052;-93
2022/01/02 00:40:50;;;;;;;0.98;0.88;;;2.50;99.90;;;;;;5055511;28;20037;-94
2022/01/02 00:43:38;;;;;;;0.47;0.47;;;2.50;99.90;;;;;;5057133;28;20063;-93
2022/01/02 00:46:06;;;;;;;0.93;0.80;;;2.50;99.90;;;;;;5053991;28;20044;-92
2022/01/02 00:48:34;;;;;;;0.77;0.77;;;2.50;99.90;;;;;;5055567;28;20025;-93
2022/01/02 00:51:03;;;;;;;0.60;0.60;;;2.50;99.90;;;;;;5052425;28;20036;-94
2022/01/02 00:53:35;;;;;;;0.60;0.60;;;2.50;99.90;;;;;;5053934;28;20066;-93
2022/01/02 00:56:04;;;;;;;0.57;0.57;;;2.40;99.90;;;;;;5052650;28;20017;-93
2022/01/02 00:58:53;;;;;;;0.60;0.60;;;2.50;99.90;;;;;;5056317;28;20057;-93
2022/01/02 01:01:32;;;;;;;1.00;0.68;;;2.50;99.90;;;;;;5038907;28;20136;-93
2022/01/02 01:03:59;;;;;;;3.40;0.68;;;2.40;99.90;;;;;;5057809;28;20033;-93
2022/01/02 01:06:30;;;;;;;0.90;0.90;;;2.40;99.90;;;;;;5073983;28;20017;-93
2022/01/02 01:08:57;;;;;;;0.80;0.60;;;2.30;99.90;;;;;;5055407;28;20045;-94
2022/01/02 01:11:28;;;;;;;0.60;0.60;;;2.30;99.90;;;;;;5053486;28;20037;-93
2022/01/02 01:13:55;;;;;;;0.65;0.65;;;2.30;99.90;;;;;;5056113;28;20047;-94
2022/01/02 01:16:21;;;;;;;0.50;0.50;;;2.30;99.90;;;;;;5057788;28;20020;-93
2022/01/02 01:18:48;;;;;;;0.60;0.60;;;2.20;99.90;;;;;;5056597;28;20096;-94
2022/01/02 01:21:15;;;;;;;0.60;0.60;;;2.20;99.90;;;;;;5056116;28;20055;-93
2022/01/02 01:23:41;;;;;;;0.60;0.52;;;2.20;99.90;;;;;;5073429;28;20033;-94
2022/01/02 01:26:10;;;;;;;0.60;0.60;;;2.20;99.90;;;;;;5053183;28;20033;-93
2022/01/02 01:28:36;;;;;;;0.50;0.50;;;2.20;99.90;;;;;;5055437;28;20118;-93
2022/01/02 01:31:02;;;;;;;0.70;0.70;;;2.10;99.90;;;;;;5055020;28;20033;-94
2022/01/02 01:33:28;;;;;;;0.60;0.60;;;2.10;99.90;;;;;;5057776;28;20052;-93
2022/01/02 01:35:54;;;;;;;0.63;0.63;;;2.10;99.90;;;;;;5057551;28;20021;-93
2022/01/02 01:38:20;;;;;;;1.75;0.60;;;2.10;99.90;;;;;;5056393;28;20031;-91
2022/01/02 01:41:01;;;;;;;0.50;0.50;;;2.10;99.90;;;;;;5052596;28;20064;-91
2022/01/02 01:43:38;;;;;;;0.40;0.40;;;2.10;99.90;;;;;;5060781;28;20096;-90
2022/01/02 01:46:05;;;;;;;0.57;0.57;;;2.10;99.90;;;;;;5077644;28;20032;-90
2022/01/02 01:48:31;;;;;;;0.50;0.50;;;2.10;99.90;;;;;;5060714;28;20057;-90
2022/01/02 01:50:57;;;;;;;1.48;0.70;;;2.10;99.90;;;;;;5060714;28;20037;-91
2022/01/02 01:53:23;;;;;;;0.47;0.47;;;2.10;99.90;;;;;;5056384;28;20068;-92
2022/01/02 01:55:49;;;;;;;0.40;0.40;;;2.10;99.90;;;;;;5055427;28;20033;-92
2022/01/02 01:58:15;;;;;;;0.40;0.40;;;2.10;99.90;;;;;;5048822;28;20057;-92
2022/01/02 02:00:41;;;;;;;0.60;0.60;;;2.10;99.90;;;;;;5045092;28;20061;-93
2022/01/02 02:03:08;;;;;;;0.47;0.47;;;2.10;99.90;;;;;;5045697;28;20046;-93
2022/01/02 02:05:34;;;;;;;1.17;1.00;;;2.10;99.90;;;;;;5047476;28;20036;-92
2022/01/02 02:08:00;;;;;;;0.57;0.57;;;2.10;99.90;;;;;;5048987;28;20014;-93
2022/01/02 02:10:35;;;;;;;2.33;1.00;;;2.10;99.90;;;;;;5049171;28;20127;-93
2022/01/02 02:13:05;;;;;;;1.13;0.80;;;2.10;99.90;;;;;;5045247;28;20037;-92
2022/01/02 02:15:31;;;;;;;0.70;0.70;;;2.10;99.90;;;;;;5045359;28;20049;-92
2022/01/02 02:17:56;;;;;;;0.85;0.85;;;2.10;99.90;;;;;;5044950;28;20033;-92
2022/01/02 02:20:31;;;;;;;0.95;0.80;;;2.10;99.90;;;;;;5046489;28;20033;-92
2022/01/02 02:22:59;;;;;;;0.68;0.68;;;2.10;99.90;;;;;;5045414;28;20045;-92
2022/01/02 02:25:28;;;;;;;0.60;0.60;;;2.10;99.90;;;;;;5050244;28;20034;-93
2022/01/02 02:28:15;;;;;;;0.95;0.68;;;2.10;99.90;;;;;;5050276;28;20097;-93
2022/01/02 02:30:44;;;;;;;0.65;0.65;;;2.10;99.00;;;;;;5047438;28;20041;-93
2022/01/02 02:33:11;;;;;;;0.40;0.40;;;2.10;99.90;;;;;;5049020;28;20056;-92
2022/01/02 02:35:39;;;;;;;1.30;0.70;;;2.10;99.90;;;;;;5029021;28;20030;-93
2022/01/02 02:38:07;;;;;;;1.45;0.70;;;2.10;99.90;;;;;;5050410;28;20030;-92
2022/01/02 02:40:34;;;;;;;0.60;0.60;;;2.10;99.90;;;;;;5044749;28;20120;-93
2022/01/02 02:43:05;;;;;;;2.10;0.85;;;2.10;99.90;;;;;;5048230;28;20037;-93
2022/01/02 02:51:21;;;;;;;0.75;0.75;;;2.10;98.10;;;;;;5047229;28;20039;-92
2022/01/02 02:53:48;;;;;;;0.40;0.40;;;2.10;94.60;;;;;;5048367;28;20399;-93
2022/01/02 02:56:20;;;;;;;0.60;0.60;;;2.10;99.70;;;;;;5046621;28;20469;-92
2022/01/02 02:58:49;;;;;;;0.85;0.85;;;2.10;96.90;;;;;;5044968;28;20184;-92
2022/01/02 03:01:16;;;;;;;0.50;0.50;;;2.00;99.10;;;;;;5049546;28;20034;-93
2022/01/02 03:03:44;;;;;;;0.85;0.75;;;2.10;97.90;;;;;;5047044;28;20033;-94
2022/01/02 03:06:10;;;;;;;0.45;0.45;;;2.00;95.70;;;;;;5046280;28;20099;-93
2022/01/02 03:08:37;;;;;;;0.60;0.60;;;2.00;96.90;;;;;;5046971;28;20060;-92
2022/01/02 03:11:05;;;;;;;1.25;1.02;;;2.00;97.30;;;;;;5048541;28;20033;-92
2022/01/02 03:13:31;;;;;;;1.23;0.77;;;2.00;94.10;;;;;;5049311;28;20056;-93
2022/01/02 03:15:57;;;;;;;0.73;0.73;;;2.00;95.90;;;;;;5050038;28;20030;-94
2022/01/02 03:18:23;;;;;;;0.55;0.55;;;2.00;97.60;;;;;;5045184;28;20033;-93
2022/01/02 03:20:49;;;;;;;2.30;1.48;;;2.00;98.70;;;;;;5043239;28;20034;-92
2022/01/02 03:23:14;;;;;;;1.38;0.77;;;2.00;97.50;;;;;;5045651;28;20056;-93
2022/01/02 03:25:42;;;;;;;0.60;0.52;;;2.00;96.00;;;;;;5049042;28;20029;-93
2022/01/02 03:28:08;;;;;;;0.70;0.70;;;2.00;98.60;;;;;;5044697;28;20069;-93
2022/01/02 03:30:34;;;;;;;0.68;0.68;;;2.00;99.90;;;;;;5044993;28;20034;-92
2022/01/02 03:33:01;;;;;;;0.93;0.82;;;1.90;99.90;;;;;;5046745;28;20469;-93
2022/01/02 03:35:27;;;;;;;1.55;0.95;;;1.90;96.50;;;;;;5045275;28;20034;-92
2022/01/02 03:37:53;;;;;;;2.50;1.63;;;1.90;98.50;;;;;;5041297;28;20095;-92
2022/01/02 03:40:18;;;;;;;2.20;1.23;;;1.90;98.70;;;;;;5042912;28;20034;-93
2022/01/02 03:42:45;;;;;;;2.60;1.13;;;1.90;99.90;;;;;;5045795;28;20041;-92
2022/01/02 03:45:11;;;;;;;0.80;0.80;;;1.90;99.90;;;;;;5041364;28;20065;-92
2022/01/02 03:47:37;;;;;;;1.52;1.00;;;1.90;98.00;;;;;;5045953;28;20040;-92
2022/01/02 03:50:05;;;;;;;0.60;0.60;;;1.90;99.90;;;;;;5042529;28;20490;-92
2022/01/02 03:52:31;;;;;;;1.48;1.20;;;1.90;99.90;;;;;;5043744;28;20077;-92
2022/01/02 03:54:58;;;;;;;2.42;0.88;;;1.90;99.90;;;;;;5022501;28;20389;-92
2022/01/02 03:57:23;;;;;;;2.40;0.90;;;1.90;99.90;;;;;;5043867;28;20050;-92
2022/01/02 03:59:49;;;;;;;1.67;1.05;;;1.80;99.90;;;;;;5044390;28;20029;-93
2022/01/02 04:02:16;;;;;;;1.55;1.00;;;1.80;99.90;;;;;;5048699;28;20049;-93
2022/01/02 04:04:42;;;;;;;0.70;0.65;;;1.80;99.90;;;;;;5047772;28;20033;-93
2022/01/02 04:07:09;;;;;;;0.70;0.70;;;1.80;99.90;;;;;;5050852;28;20531;-92
2022/01/02 04:09:35;;;;;;;1.05;1.02;;;1.80;99.90;;;;;;5040601;28;20044;-92
2022/01/02 04:12:01;;;;;;;0.90;0.80;;;1.80;99.90;;;;;;5043545;28;20057;-92
2022/01/02 04:14:27;;;;;;;0.98;0.77;;;1.80;99.90;;;;;;5042461;28;20037;-92
2022/01/02 04:16:53;;;;;;;1.15;0.88;;;1.80;99.90;;;;;;5041919;28;20038;-92
2022/01/02 04:19:19;;;;;;;2.75;1.00;;;1.80;99.90;;;;;;5041238;28;20030;-92
2022/01/02 04:21:45;;;;;;;0.85;0.80;;;1.80;99.90;;;;;;5042071;28;20047;-93
2022/01/02 04:24:10;;;;;;;0.93;0.70;;;1.70;99.90;;;;;;5047228;28;20034;-92
2022/01/02 04:26:36;;;;;;;0.80;0.80;;;1.80;99.90;;;;;;5043726;28;20037;-92
2022/01/02 04:29:03;;;;;;;1.13;1.00;;;1.80;99.90;;;;;;5044856;28;20033;-92
2022/01/02 04:31:28;;;;;;;1.05;1.05;;;1.80;99.90;;;;;;5043361;28;20043;-93
2022/01/02 04:33:56;;;;;;;1.38;0.70;;;1.70;99.90;;;;;;5042380;28;20129;-92
2022/01/02 04:36:21;;;;;;;0.80;0.80;;;1.70;99.90;;;;;;5041589;28;20059;-92
2022/01/02 04:38:47;;;;;;;0.60;0.60;;;1.70;99.90;;;;;;5042865;28;20539;-93
2022/01/02 04:41:13;;;;;;;0.70;0.70;;;1.70;99.90;;;;;;5038779;28;20038;-93
2022/01/02 04:43:39;;;;;;;0.52;0.50;;;1.70;99.90;;;;;;5043066;28;20049;-92
2022/01/02 04:46:06;;;;;;;1.52;0.95;;;1.70;99.90;;;;;;5045842;28;20037;-92
2022/01/02 04:48:32;;;;;;;1.35;0.75;;;1.70;99.60;;;;;;5046289;28;20468;-93
2022/01/02 04:50:58;;;;;;;0.68;0.68;;;1.70;99.90;;;;;;5048742;28;20037;-93
2022/01/02 04:53:24;;;;;;;1.10;1.00;;;1.60;99.70;;;;;;5049222;28;20041;-93
2022/01/02 04:55:50;;;;;;;0.82;0.82;;;1.60;99.90;;;;;;5051137;28;20088;-92
2022/01/02 04:58:17;;;;;;;0.60;0.60;;;1.60;99.90;;;;;;5051237;28;20108;-93
2022/01/02 05:00:43;;;;;;;0.88;0.88;;;1.60;99.90;;;;;;5048318;28;20040;-92
2022/01/02 05:03:09;;;;;;;1.13;1.00;;;1.60;99.90;;;;;;5050203;28;20038;-93
2022/01/02 05:05:35;;;;;;;1.35;0.85;;;1.60;99.90;;;;;;5048400;28;20037;-92
2022/01/02 05:08:01;;;;;;;2.33;1.60;;;1.60;99.90;;;;;;5048611;28;20056;-93
2022/01/02 05:10:27;;;;;;;0.80;0.80;;;1.60;99.90;;;;;;5048972;28;20045;-93
2022/01/02 05:12:53;;;;;;;0.80;0.80;;;1.60;99.90;;;;;;5048633;28;20097;-92
2022/01/02 05:15:19;;;;;;;1.42;1.30;;;1.50;99.50;;;;;;5050755;28;20029;-93
2022/01/02 05:17:45;;;;;;;0.90;0.90;;;1.50;97.60;;;;;;5049119;28;20093;-93
2022/01/02 05:20:11;;;;;;;0.70;0.70;;;1.40;96.80;;;;;;5052320;28;20044;-92
2022/01/02 05:22:37;;;;;;;0.80;0.80;;;1.40;98.00;;;;;;5048785;28;20041;-93
2022/01/02 05:25:04;;;;;;;1.45;0.90;;;1.40;98.60;;;;;;5050841;28;20033;-93
2022/01/02 05:27:29;;;;;;;0.80;0.73;;;1.40;99.70;;;;;;5051118;28;20017;-93
2022/01/02 05:29:55;;;;;;;0.98;0.90;;;1.40;99.10;;;;;;5050868;28;20133;-92
2022/01/02 05:32:21;;;;;;;0.73;0.73;;;1.40;98.80;;;;;;5050421;28;20041;-92
2022/01/02 05:34:47;;;;;;;1.08;1.00;;;1.40;98.70;;;;;;5049448;28;20048;-93
2022/01/02 05:37:13;;;;;;;1.02;0.70;;;1.30;98.20;;;;;;5046395;28;20029;-92
2022/01/02 05:39:39;;;;;;;1.92;1.00;;;1.30;99.50;;;;;;5049801;28;20038;-93
2022/01/02 05:42:05;;;;;;;1.13;1.10;;;1.30;99.20;;;;;;5048929;28;20080;-93
2022/01/02 05:44:31;;;;;;;1.10;1.00;;;1.30;97.70;;;;;;5050588;28;20029;-92
2022/01/02 05:46:57;;;;;;;0.95;0.90;;;1.30;98.70;;;;;;5047601;28;20128;-92
2022/01/02 05:49:23;;;;;;;1.17;1.05;;;1.20;97.20;;;;;;5048141;28;20064;-92
2022/01/02 05:51:49;;;;;;;0.82;0.82;;;1.20;98.90;;;;;;5052493;28;20037;-93
2022/01/02 05:54:15;;;;;;;1.23;1.13;;;1.30;99.20;;;;;;5048768;28;20037;-93
2022/01/02 05:56:41;;;;;;;3.65;1.13;;;1.20;97.40;;;;;;5052608;28;20053;-93
2022/01/02 05:59:07;;;;;;;1.02;0.93;;;1.20;96.10;;;;;;5051661;28;20113;-92
2022/01/02 06:01:33;;;;;;;1.85;1.27;;;1.20;97.80;;;;;;5050582;28;20040;-92
2022/01/02 06:04:00;;;;;;;1.92;1.65;;;1.20;97.60;;;;;;5055384;28;20032;-93
2022/01/02 06:06:26;;;;;;;2.85;1.05;;;1.20;98.00;;;;;;5056634;28;20033;-92
2022/01/02 06:08:52;;;;;;;2.40;1.08;;;1.20;94.30;;;;;;5057234;28;20037;-92
2022/01/02 06:11:18;;;;;;;3.08;1.65;;;1.10;93.80;;;;;;5041521;28;20037;-91
2022/01/02 06:13:44;;;;;;;0.68;0.68;;;1.10;94.70;;;;;;5072962;28;20093;-91
2022/01/02 06:16:13;;;;;;;4.28;1.42;;;1.10;96.30;;;;;;5050011;28;20056;-92
2022/01/02 06:18:40;;;;;;;1.05;0.93;;;1.10;97.60;;;;;;5053430;28;20101;-93
2022/01/02 06:21:06;;;;;;;0.80;0.80;;;1.10;94.10;;;;;;5055875;28;20137;-94
2022/01/02 06:23:31;;;;;;;1.63;1.00;;;1.10;92.80;;;;;;5053790;28;20506;-92
2022/01/02 06:25:57;;;;;;;1.63;1.52;;;1.10;93.00;;;;;;5053089;28;20029;-93
2022/01/02 06:28:23;;;;;;;0.50;0.50;;;1.00;93.10;;;;;;5050177;28;20035;-93
2022/01/02 06:30:49;;;;;;;1.08;0.90;;;0.90;92.30;;;;;;5052005;28;20032;-94
2022/01/02 06:33:16;;;;;;;1.95;1.10;;;0.80;92.00;;;;;;5051547;28;20061;-93
2022/01/02 06:35:42;;;;;;;1.83;0.90;;;0.80;92.80;;;;;;5049349;28;20045;-94
2022/01/02 06:38:19;;;;;;;0.80;0.80;;;0.80;93.90;;;;;;5050411;28;20057;-93
2022/01/02 06:40:45;;;;;;;1.00;0.75;;;0.70;92.30;;;;;;5053724;28;20037;-93
2022/01/02 06:43:13;;;;;;;1.58;1.38;;;0.60;92.00;;;;;;5053271;28;20040;-93
2022/01/02 06:45:39;;;;;;;0.98;0.88;;;0.60;92.50;;;;;;5053069;28;20033;-93
2022/01/02 06:48:05;;;;;;;1.02;0.77;;;0.60;91.00;;;;;;5052270;28;20035;-93
2022/01/02 06:50:32;;;;;;;0.60;0.60;;;0.50;93.00;;;;;;5052206;28;20047;-93
2022/01/02 06:52:58;;;;;;;1.27;1.00;;;0.50;92.80;;;;;;5052798;28;20047;-93
2022/01/02 06:55:24;;;;;;;1.65;0.98;;;0.50;92.30;;;;;;5070344;28;20068;-93
2022/01/02 06:57:50;;;;;;;3.65;1.10;;;0.50;92.80;;;;;;5050738;28;20059;-93
2022/01/02 07:00:16;;;;;;;1.42;1.25;;;0.50;91.20;;;;;;5053597;28;20071;-93
2022/01/02 07:02:42;;;;;;;1.25;0.75;;;0.40;92.80;;;;;;5051039;28;20108;-93
2022/01/02 07:05:08;;;;;;;1.98;1.40;;;0.40;92.50;;;;;;5069534;28;20036;-92
2022/01/02 07:07:41;;;;;;;1.92;1.00;;;0.40;94.00;;;;;;5053610;28;20033;-93
2022/01/02 07:10:07;;;;;;;2.55;1.40;;;0.40;93.50;;;;;;5052384;28;20025;-93
2022/01/02 07:12:34;;;;;;;2.17;1.13;;;0.40;94.00;;;;;;5067238;28;20048;-94
2022/01/02 07:15:00;;;;;;;1.27;1.08;;;0.30;92.50;;;;;;5070019;28;20043;-93
2022/01/02 07:17:26;;;;;;;1.50;1.00;;;0.20;90.50;;;;;;5053820;28;20041;-94
2022/01/02 07:19:51;;;;;;;1.60;1.30;;;0.10;91.30;;;;;;5055227;28;20040;-93
2022/01/02 07:22:17;;;;;;;2.63;1.70;;;0.10;92.10;;;;;;5051671;28;20048;-93
2022/01/02 07:24:50;;;;;;;4.43;2.20;;;0.10;92.00;;;;;;5068821;28;20037;-92
2022/01/02 07:27:16;;;;;;;1.30;1.25;;;0.20;92.20;;;;;;5053937;28;20063;-93
2022/01/02 07:29:42;;;;;;;1.42;1.13;;;0.30;90.40;;;;;;5054293;28;20044;-94
2022/01/02 07:32:08;;;;;;;1.08;1.05;;;0.40;91.60;;;;;;5052361;28;20135;-92
2022/01/02 07:34:34;;;;;;;1.77;1.50;;;0.40;87.40;;;;;;5068729;28;20037;-93
2022/01/02 07:37:00;;;;;;;1.33;1.00;;;0.50;90.10;;;;;;5053220;28;20037;-92
2022/01/02 07:39:26;;;;;;;2.03;1.38;;;0.40;87.00;;;;;;5052193;28;20041;-92
2022/01/02 07:41:52;;;;;;;9.27;1.60;;;0.40;91.30;;;;;;5050371;28;20100;-94
2022/01/02 07:44:17;;;;;;;3.70;1.33;;;0.40;91.10;;;;;;5053222;28;20039;-93
2022/01/02 07:46:43;;;;;;;1.77;1.63;;;0.40;87.70;;;;;;5054289;28;20048;-93
2022/01/02 07:49:09;;;;;;;3.20;1.10;;;0.40;90.10;;;;;;5053762;28;20033;-94
2022/01/02 07:51:35;;;;;;;1.98;1.50;;;0.40;92.00;;;;;;5054716;28;20112;-93
2022/01/02 07:54:01;;;;;;;1.83;1.40;;;0.40;92.40;;;;;;5055029;28;20044;-93
2022/01/02 07:56:27;;;;;;;5.13;2.17;;;0.40;92.30;;;;;;5051706;28;20037;-93
2022/01/02 07:58:55;;;;;;;3.67;1.83;;;0.40;92.20;;;;;;5051110;28;20048;-93
2022/01/02 08:01:22;;;;;;;3.15;2.05;;;0.40;92.40;;;;;;5072110;28;20080;-94
2022/01/02 08:03:48;;;;;;;5.10;1.90;;;0.40;89.60;;;;;;5051698;28;20043;-95
2022/01/02 08:06:14;;;;;;;5.30;1.55;;;0.40;84.40;;;;;;5051955;28;20033;-92
2022/01/02 08:08:40;;;;;;;2.88;1.48;;;0.50;91.60;;;;;;5052514;28;20086;-93
2022/01/02 08:11:05;;;;;;;3.83;2.20;;;0.50;90.00;;;;;;5051537;28;20109;-92
2022/01/02 08:13:31;;;;;;;1.77;1.45;;;0.50;90.40;;;;;;5069781;28;20064;-93
2022/01/02 08:15:57;;;;;;;1.65;1.27;;;0.50;87.80;;;;;;5051606;28;20124;-93
2022/01/02 08:18:23;;;;;;;3.35;1.90;;;0.40;86.90;;;;;;5052310;28;20037;-93
2022/01/02 08:20:49;;;;;;;2.72;1.35;;;0.50;88.80;;;;;;5050935;28;20036;-93
2022/01/02 08:23:15;;;;;;;3.55;1.60;;;0.50;88.40;;;;;;5068868;28;20052;-92
2022/01/02 08:25:42;;;;;;;1.75;1.63;;;0.50;86.90;;;;;;5056789;28;20060;-93
2022/01/02 08:28:08;;;;;;;3.45;1.33;;;0.50;83.60;;;;;;5054940;28;20036;-93
2022/01/02 08:30:34;;;;;;;3.20;1.33;;;0.50;82.70;;;;;;5057396;28;20037;-93
2022/01/02 08:33:00;;;;;;;1.27;1.17;;;0.50;81.80;;;;;;5055752;28;20048;-92
2022/01/02 08:35:26;;;;;;;1.85;1.30;;;0.50;85.70;;;;;;5055957;28;20668;-94
2022/01/02 08:37:52;;;;;;;3.92;1.50;;;0.60;85.20;;;;;;5055091;28;20039;-93
2022/01/02 08:40:17;;;;;;;1.52;1.20;;;0.60;86.30;;;;;;5055847;28;20132;-93
2022/01/02 08:42:43;;;;;;;1.42;1.20;;;0.60;83.50;;;;;;5057032;28;20037;-92
2022/01/02 08:45:09;;;;;;;3.33;1.58;;;0.60;85.20;;;;;;5055806;28;20037;-92
2022/01/02 08:47:35;;;;;;;1.60;1.35;;;0.70;86.70;;;;;;5055621;28;20041;-93
2022/01/02 08:50:02;;;;;;;0.95;0.93;;;0.70;85.70;;;;;;5055915;28;20108;-93
2022/01/02 08:52:28;;;;;;;1.75;1.48;;;0.60;83.60;;;;;;5055511;28;20037;-94
2022/01/02 08:54:53;;;;;;;1.33;1.23;;;0.60;86.30;;;;;;5057056;28;20044;-93
2022/01/02 08:57:19;;;;;;;1.67;1.30;;;0.50;86.00;;;;;;5055959;28;20131;-94
2022/01/02 08:59:45;;;;;;;2.08;1.88;;;0.50;85.60;;;;;;5056394;28;20060;-93
2022/01/02 09:02:11;;;;;;;1.45;1.30;;;0.50;85.90;;;;;;5056104;28;20044;-93
2022/01/02 09:04:37;;;;;;;0.77;0.75;;;0.50;82.40;;;;;;5055902;28;20059;-92
2022/01/02 09:07:03;;;;;;;1.30;1.20;;;0.50;85.00;;;;;;5055042;28;20033;-93
2022/01/02 09:09:29;;;;;;;1.23;1.13;;;0.50;84.50;;;;;;5053517;28;20104;-93
2022/01/02 09:11:55;;;;;;;1.92;1.20;;;0.50;86.40;;;;;;5054731;28;20048;-93
2022/01/02 09:14:21;;;;;;;2.92;1.38;;;0.50;85.60;;;;;;5054227;28;20044;-92
2022/01/02 09:16:47;;;;;;;2.13;1.63;;;0.50;86.30;;;;;;5054918;28;20091;-92
2022/01/02 09:19:13;;;;;;;1.35;1.17;;;0.50;82.40;;;;;;5054025;28;20032;-92
2022/01/02 09:21:39;;;;;;;1.63;1.10;;;0.50;82.70;;;;;;5054611;28;20037;-93
2022/01/02 09:24:06;;;;;;;1.63;1.15;;;0.50;82.90;;;;;;5054644;28;20029;-92
2022/01/02 09:26:32;;;;;;;2.97;1.58;;;0.50;80.00;;;;;;5055759;28;20033;-92
2022/01/02 09:28:58;;;;;;;2.92;1.98;;;0.40;81.20;;;;;;5055674;28;20037;-92
2022/01/02 09:31:24;;;;;;;1.98;1.42;;;0.40;80.90;;;;;;5053087;28;20093;-92
2022/01/02 09:33:50;;;;;;;5.78;2.42;;;0.30;82.00;;;;;;5073922;28;20048;-93
2022/01/02 09:36:17;;;;;;;1.92;1.73;;;0.40;82.60;;;;;;5055549;28;20096;-92
2022/01/02 09:38:43;;;;;;;1.20;1.10;;;0.40;81.70;;;;;;5055284;28;20033;-92
2022/01/02 09:41:09;;;;;;;1.75;1.20;;;0.30;74.10;;;;;;5055495;28;20040;-93
2022/01/02 09:43:36;;;;;;;0.90;0.90;;;0.20;75.10;;;;;;5054666;28;20047;-93
2022/01/02 09:46:03;;;;;;;2.30;1.17;;;0.20;76.90;;;;;;5054998;28;20033;-93
2022/01/02 09:48:30;;;;;;;2.53;1.25;;;0.30;75.10;;;;;;5054805;28;20525;-94
2022/01/02 09:50:57;;;;;;;1.48;1.13;;;0.30;74.80;;;;;;5057280;28;20068;-90
2022/01/02 09:53:23;;;;;;;2.22;1.85;;;0.20;73.90;;;;;;5061160;28;20047;-91
2022/01/02 09:55:49;;;;;;;0.80;0.80;;;0.30;75.30;;;;;;5059827;28;20021;-91
2022/01/02 09:58:15;;;;;;;1.50;1.40;;;0.30;76.50;;;;;;5059571;28;20059;-90
2022/01/02 10:00:47;;;;;;;3.30;1.08;;;0.30;74.50;;;;;;5077549;28;20053;-93
2022/01/02 10:03:14;;;;;;;2.28;1.02;;;0.30;75.10;;;;;;5054784;28;20037;-91
2022/01/02 10:05:59;;;;;;;2.45;1.23;;;0.30;75.30;;;;;;5052994;28;20097;-93
2022/01/02 10:08:31;;;;;;;1.73;1.10;;;0.30;75.90;;;;;;5053562;28;20037;-93
2022/01/02 10:11:11;;;;;;;1.42;0.98;;;0.40;75.50;;;;;;5053075;28;20062;-93
2022/01/02 10:13:45;;;;;;;1.90;1.25;;;0.30;74.90;;;;;;5054109;28;20041;-93
2022/01/02 10:16:25;;;;;;;;;;;0.30;75.10;;;;;;5040288;28;20042;-93
2022/01/02 10:18:54;;;;;;;1.52;0.95;;;0.30;74.50;;;;;;5047838;28;19947;-92
2022/01/02 10:21:40;;;;;;;2.88;1.42;;;0.40;75.70;;;;;;5029143;28;20072;-93
2022/01/02 10:24:42;;;;;;;2.75;2.15;;;0.40;76.70;;;;;;5029586;28;20049;-93
2022/01/02 10:27:14;;;;;;;2.85;1.60;;;0.30;76.70;;;;;;5029196;28;20037;-93
2022/01/02 10:29:44;;;;;;;1.58;1.48;;;0.40;78.70;;;;;;5031677;28;20029;-93
2022/01/02 10:32:35;;;;;;;1.55;1.38;;;0.40;78.80;;;;;;5040764;28;20055;-93
2022/01/02 10:35:21;;;;;;;1.58;1.40;;;0.50;76.60;;;;;;5049943;28;20075;-93
2022/01/02 10:38:00;;;;;;;1.70;1.27;;;0.50;78.80;;;;;;5048261;28;20044;-92
2022/01/02 10:40:33;;;;;;;2.20;1.60;;;0.50;78.50;;;;;;5053648;28;20033;-93
2022/01/02 10:43:01;;;;;;;1.30;1.15;;;0.60;78.80;;;;;;5026926;28;20070;-93
2022/01/02 10:45:31;;;;;;;1.52;1.42;;;0.60;78.50;;;;;;5033883;28;20083;-95
2022/01/02 10:47:57;;;;;;;1.90;1.70;;;0.60;77.50;;;;;;5047231;28;20129;-94
2022/01/02 10:50:24;;;;;;;2.83;2.10;;;0.70;77.70;;;;;;5046853;28;20029;-91
2022/01/02 10:52:50;;;;;;;2.58;1.60;;;0.60;77.00;;;;;;5046444;28;20061;-94
2022/01/02 10:55:21;;;;;;;2.95;1.35;;;0.60;76.90;;;;;;5029852;28;20083;-93
2022/01/02 10:57:51;;;;;;;2.22;1.50;;;0.50;77.30;;;;;;5037976;28;20056;-94
2022/01/02 11:00:18;;;;;;;1.95;1.73;;;0.60;77.80;;;;;;5026635;28;20077;-94
2022/01/02 11:02:46;;;;;;;2.83;1.80;;;0.60;78.70;;;;;;5026950;28;20128;-94
2022/01/02 11:05:14;;;;;;;3.25;1.27;;;0.60;76.80;;;;;;5040962;28;20063;-93
2022/01/02 11:07:43;;;;;;;2.20;1.63;;;0.50;75.00;;;;;;5047893;28;20067;-92
2022/01/02 11:10:15;;;;;;;1.50;1.40;;;0.50;74.80;;;;;;5050006;28;20029;-93
2022/01/02 11:12:42;;;;;;;1.50;0.88;;;0.50;74.60;;;;;;5031298;28;20391;-94
2022/01/02 11:15:13;;;;;;;1.58;0.93;;;0.40;73.80;;;;;;5033716;28;20037;-94
2022/01/02 11:17:39;;;;;;;2.30;1.40;;;0.40;74.10;;;;;;5045331;28;20033;-93
2022/01/02 11:20:10;;;;;;;4.47;2.45;;;0.30;74.90;;;;;;5066312;28;20063;-93
2022/01/02 11:23:00;;;;;;;2.13;1.88;;;0.20;74.80;;;;;;5067529;28;20025;-94
2022/01/02 11:26:07;;;;;;;3.63;2.10;;;0.20;74.40;;;;;;5057824;28;20100;-93
2022/01/02 11:28:35;;;;;;;3.03;1.38;;;0.30;75.60;;;;;;5049170;28;20037;-93
2022/01/02 11:31:02;;;;;;;1.95;1.63;;;0.30;75.90;;;;;;5048475;28;20060;-94
2022/01/02 11:33:34;;;;;;;2.35;1.92;;;0.30;74.90;;;;;;5047233;28;20131;-93
2022/01/02 11:36:21;;;;;;;1.65;1.00;;;0.30;74.60;;;;;;5030771;28;20104;-93
2022/01/02 11:38:57;;;;;;;2.30;1.50;;;0.30;75.80;;;;;;5047497;28;20049;-93
2022/01/02 11:41:42;;;;;;;1.98;1.27;;;0.30;75.80;;;;;;5032800;28;20033;-93
2022/01/02 11:44:12;;;;;;;2.22;1.80;;;0.40;74.50;;;;;;5031997;28;20091;-92
2022/01/02 11:46:56;;;;;;;2.83;1.35;;;0.40;73.20;;;;;;5048457;28;20042;-93
2022/01/02 11:49:45;;;;;;;1.95;1.42;;;0.40;73.40;;;;;;5048762;28;20116;-93
2022/01/02 11:52:28;;;;;;;3.10;1.80;;;0.40;73.90;;;;;;5027143;28;20045;-93
2022/01/02 11:55:14;;;;;;;1.67;1.25;;;0.40;75.20;;;;;;5035754;28;20041;-93
2022/01/02 11:57:41;;;;;;;2.38;1.40;;;0.40;73.70;;;;;;5021476;28;20586;-94
2022/01/02 12:00:08;;;;;;;0.88;0.88;;;0.40;73.80;;;;;;5032782;28;20086;-94
2022/01/02 12:02:35;;;;;;;3.40;1.70;;;0.40;74.00;;;;;;5033433;28;20048;-92
2022/01/02 12:07:42;;;;;;;1.42;1.17;;;0.30;74.30;;;;;;5041034;28;20033;-95
2022/01/02 12:10:23;;;;;;;1.45;1.00;;;0.30;73.80;;;;;;5019065;28;20041;-92
2022/01/02 12:13:00;;;;;;;1.45;1.33;;;0.30;74.60;;;;;;5052220;28;20113;-93
2022/01/02 12:15:41;;;;;;;1.10;1.10;;;0.30;74.90;;;;;;5025150;28;20458;-92
2022/01/02 12:18:25;;;;;;;1.42;1.30;;;0.30;75.20;;;;;;5021296;28;20131;-93
2022/01/02 12:21:15;;;;;;;0.95;0.95;;;0.30;75.50;;;;;;5021990;28;20048;-89
2022/01/02 12:23:42;;;;;;;1.33;1.20;;;0.30;74.70;;;;;;5024797;28;20040;-91
2022/01/02 12:26:21;;;;;;;1.77;1.33;;;0.30;74.50;;;;;;5019151;28;20061;-91
2022/01/02 12:29:14;;;;;;;2.13;1.35;;;0.30;74.10;;;;;;5029897;28;20037;-90
2022/01/02 12:31:43;;;;;;;1.38;1.10;;;0.30;75.50;;;;;;5038822;28;20047;-94
2022/01/02 12:34:23;;;;;;;1.75;1.33;;;0.30;76.10;;;;;;5034972;28;20037;-93
2022/01/02 12:36:50;;;;;;;1.50;1.13;;;0.30;76.60;;;;;;5025688;28;20037;-95
2022/01/02 12:39:43;;;;;;;2.72;1.23;;;0.30;77.30;;;;;;5005197;28;20038;-94
2022/01/02 12:42:14;;;;;;;2.53;1.65;;;0.40;76.00;;;;;;5026820;28;20481;-96
2022/01/02 12:44:41;;;;;;;2.15;1.52;;;0.30;75.80;;;;;;5030617;28;20033;-94
2022/01/02 12:47:12;;;;;;;3.10;1.33;;;0.30;76.60;;;;;;5023434;28;20029;-96
2022/01/02 12:49:49;;;;;;;1.73;1.33;;;0.20;76.60;;;;;;5033356;23;20077;-94
2022/01/02 12:52:26;;;;;;;4.35;1.50;;;0.20;77.40;;;;;;5007531;28;20129;-95
2022/01/02 12:54:54;;;;;;;1.60;1.45;;;0.30;77.90;;;;;;5010458;28;20437;-92
2022/01/02 12:57:23;;;;;;;2.40;1.85;;;0.40;78.70;;;;;;5008094;28;20041;-92
2022/01/02 12:59:59;;;;;;;1.05;1.05;;;0.30;77.10;;;;;;5012254;28;20121;-91
2022/01/02 13:02:31;;;;;;;2.47;1.65;;;0.40;78.20;;;;;;5016041;28;20046;-95
2022/01/02 13:05:05;;;;;;;2.10;1.90;;;0.40;76.20;;;;;;5002625;28;20038;-94
2022/01/02 13:07:50;;;;;;;1.80;1.20;;;0.40;78.00;;;;;;5020624;28;20042;-96
2022/01/02 13:10:21;;;;;;;2.72;1.90;;;0.30;78.20;;;;;;5014416;28;20084;-96
2022/01/02 13:12:47;;;;;;;1.85;1.55;;;0.40;78.30;;;;;;5020755;28;20050;-94
2022/01/02 13:15:27;;;;;;;1.30;1.20;;;0.30;77.80;;;;;;5026338;28;20627;-95